Terminal Aerodrome Forecast
Issued by NWS Paducah, KY

Home | Current Version | Previous Version | Text Only | Print | Product List | Glossary On
Versions: 1 2 3 4 5 6 7 8 9 10 11 12 13 14 15 16
000
FTUS43 KPAH 241700
TAFPAH
TAF
KPAH 241720Z 2418/2518 VRB03KT P6SM SCT030
     FM250100 VRB02KT P6SM SKC
     FM250800 00000KT 4SM BR SCT012
     FM251400 VRB03KT P6SM SCT030=

USA.gov is the U.S. government's official web portal to all federal, state and local government web resources and services.